createdAt,value
2018-06-12T00:00:35.484Z,17.13
2018-06-12T00:03:03.556Z,17.30
2018-06-12T00:05:31.626Z,17.47
2018-06-12T00:07:59.718Z,19.20
2018-06-12T00:10:27.913Z,18.57
2018-06-12T00:12:55.975Z,16.93
2018-06-12T00:15:24.127Z,19.87
2018-06-12T00:17:52.215Z,19.10
2018-06-12T00:20:20.336Z,17.60
2018-06-12T00:22:48.455Z,19.67
2018-06-12T00:25:16.554Z,18.17
2018-06-12T00:27:44.716Z,17.23
2018-06-12T00:30:12.819Z,19.17
2018-06-12T00:32:40.929Z,19.30
2018-06-12T00:35:08.850Z,17.93
2018-06-12T00:37:36.927Z,21.30
2018-06-12T00:40:05.019Z,20.57
2018-06-12T00:42:33.087Z,20.23
2018-06-12T00:45:01.159Z,20.13
2018-06-12T00:47:29.238Z,19.93
2018-06-12T00:49:57.316Z,20.97
2018-06-12T00:52:25.435Z,19.83
2018-06-12T00:54:53.515Z,19.37
2018-06-12T00:57:21.638Z,22.90
2018-06-12T00:59:49.710Z,22.60
2018-06-12T01:02:17.817Z,20.83
2018-06-12T01:04:45.918Z,22.97
2018-06-12T01:07:13.998Z,21.23
2018-06-12T01:09:42.062Z,23.23
2018-06-12T01:12:10.212Z,23.12
2018-06-12T01:14:38.255Z,18.90
2018-06-12T01:17:06.366Z,22.90
2018-06-12T01:19:34.446Z,20.27
2018-06-12T01:22:02.514Z,23.93
2018-06-12T01:24:30.619Z,20.50
2018-06-12T01:26:58.690Z,20.90
2018-06-12T01:29:26.778Z,19.80
2018-06-12T01:31:54.877Z,18.50
2018-06-12T01:34:22.967Z,19.97
2018-06-12T01:36:51.054Z,19.17
2018-06-12T01:39:19.244Z,17.53
2018-06-12T01:41:47.315Z,18.43
2018-06-12T01:44:15.390Z,18.20
2018-06-12T01:46:43.480Z,16.53
2018-06-12T01:49:11.329Z,20.50
2018-06-12T01:51:39.463Z,16.63
2018-06-12T01:54:07.520Z,19.47
2018-06-12T01:56:35.588Z,18.87
2018-06-12T01:59:03.693Z,19.35
2018-06-12T02:01:31.842Z,19.73
2018-06-12T02:04:00.203Z,15.47
2018-06-12T02:06:28.302Z,17.73
2018-06-12T02:08:56.478Z,16.00
2018-06-12T02:11:24.538Z,17.70
2018-06-12T02:13:52.653Z,18.07
2018-06-12T02:16:20.714Z,16.33
2018-06-12T02:18:48.877Z,16.80
2018-06-12T02:21:16.960Z,16.23
2018-06-12T02:23:45.059Z,15.87
2018-06-12T02:26:13.150Z,15.23
2018-06-12T02:28:41.222Z,16.37
2018-06-12T02:31:09.299Z,16.40
2018-06-12T02:33:37.361Z,18.33
2018-06-12T02:36:05.459Z,15.47
2018-06-12T02:38:33.556Z,15.83
2018-06-12T02:41:01.659Z,16.02
2018-06-12T02:43:29.727Z,14.10
2018-06-12T02:45:57.852Z,23.00
2018-06-12T02:48:25.947Z,14.30
2018-06-12T02:50:54.858Z,14.93
2018-06-12T02:53:22.958Z,15.43
2018-06-12T02:55:51.040Z,12.20
2018-06-12T02:58:19.152Z,11.60
2018-06-12T03:00:47.219Z,12.80
2018-06-12T03:03:15.385Z,12.13
2018-06-12T03:05:43.561Z,14.53
2018-06-12T03:08:11.658Z,13.30
2018-06-12T03:10:39.739Z,13.23
2018-06-12T03:13:07.805Z,13.93
2018-06-12T03:15:35.943Z,14.13
2018-06-12T03:18:04.140Z,15.50
2018-06-12T03:20:42.939Z,13.00
2018-06-12T03:23:11.059Z,15.87
2018-06-12T03:25:39.180Z,14.13
2018-06-12T03:28:07.364Z,14.83
2018-06-12T03:30:35.543Z,15.30
2018-06-12T03:33:03.667Z,12.67
2018-06-12T03:35:31.743Z,13.47
2018-06-12T03:37:59.830Z,16.23
2018-06-12T03:40:27.906Z,15.70
2018-06-12T03:42:56.018Z,14.68
2018-06-12T03:45:24.188Z,14.90
2018-06-12T03:47:52.235Z,13.40
2018-06-12T03:50:20.320Z,14.30
2018-06-12T03:52:48.375Z,13.60
2018-06-12T03:55:16.443Z,15.70
2018-06-12T03:57:44.593Z,15.13
2018-06-12T04:00:12.682Z,15.07
2018-06-12T04:02:40.779Z,16.40
2018-06-12T04:05:08.852Z,14.00
2018-06-12T04:07:36.946Z,14.27
2018-06-12T04:10:04.982Z,12.77
2018-06-12T04:12:33.238Z,11.40
2018-06-12T04:15:01.337Z,12.23
2018-06-12T04:17:29.386Z,12.53
2018-06-12T04:19:58.151Z,11.37
2018-06-12T04:22:26.209Z,11.40
2018-06-12T04:24:54.292Z,11.40
2018-06-12T04:27:22.370Z,10.47
2018-06-12T04:29:50.389Z,14.43
2018-06-12T04:32:18.510Z,12.17
2018-06-12T04:34:46.610Z,12.60
2018-06-12T04:37:14.682Z,14.97
2018-06-12T04:39:42.858Z,10.68
2018-06-12T04:42:11.040Z,10.30
2018-06-12T04:44:39.106Z,11.87
2018-06-12T04:47:07.258Z,11.57
2018-06-12T04:49:35.318Z,10.23
2018-06-12T04:52:03.419Z,11.10
2018-06-12T04:54:31.541Z,11.07
2018-06-12T04:56:59.607Z,12.33
2018-06-12T04:59:27.811Z,11.40
2018-06-12T05:01:56.349Z,11.57
2018-06-12T05:04:24.598Z,10.17
2018-06-12T05:06:53.015Z,14.43
2018-06-12T05:09:21.139Z,10.07
2018-06-12T05:11:49.766Z,9.63
2018-06-12T05:14:17.873Z,9.80
2018-06-12T05:16:45.945Z,12.97
2018-06-12T05:19:14.046Z,9.70
2018-06-12T05:21:41.985Z,11.90
2018-06-12T05:24:10.083Z,12.10
2018-06-12T05:26:39.386Z,11.03
2018-06-12T05:29:07.554Z,10.17
2018-06-12T05:31:35.630Z,8.97
2018-06-12T05:34:03.725Z,9.67
2018-06-12T05:36:31.800Z,9.67
2018-06-12T05:38:59.875Z,10.37
2018-06-12T05:41:27.950Z,12.07
2018-06-12T05:43:56.020Z,7.23
2018-06-12T05:46:24.094Z,10.10
2018-06-12T05:48:52.161Z,10.83
2018-06-12T05:51:20.218Z,9.57
2018-06-12T05:53:48.357Z,8.20
2018-06-12T05:56:16.471Z,12.07
2018-06-12T05:58:44.566Z,7.07
2018-06-12T06:01:12.743Z,11.87
2018-06-12T06:03:40.805Z,11.17
2018-06-12T06:06:08.895Z,11.07
2018-06-12T06:08:36.962Z,9.70
2018-06-12T06:11:05.122Z,7.87
2018-06-12T06:13:34.182Z,8.43
2018-06-12T06:16:02.248Z,11.33
2018-06-12T06:18:30.326Z,10.87
2018-06-12T06:20:58.330Z,10.03
2018-06-12T06:23:26.367Z,14.37
2018-06-12T06:25:54.434Z,7.20
2018-06-12T06:28:22.591Z,10.03
2018-06-12T06:30:50.688Z,10.83
2018-06-12T06:33:18.796Z,12.70
2018-06-12T06:35:46.891Z,11.28
2018-06-12T06:38:14.976Z,9.40
2018-06-12T06:40:43.038Z,10.50
2018-06-12T06:43:11.114Z,7.07
2018-06-12T06:45:39.198Z,6.77
2018-06-12T06:48:07.255Z,10.33
2018-06-12T06:50:35.318Z,6.97
2018-06-12T06:53:03.443Z,8.73
2018-06-12T06:55:31.540Z,11.57
2018-06-12T06:57:59.717Z,8.77
2018-06-12T07:00:27.751Z,7.07
2018-06-12T07:02:55.815Z,8.17
2018-06-12T07:05:23.682Z,7.80
2018-06-12T07:07:51.750Z,7.40
2018-06-12T07:10:19.864Z,9.37
2018-06-12T07:12:47.910Z,6.60
2018-06-12T07:15:15.987Z,6.73
2018-06-12T07:17:44.323Z,7.33
2018-06-12T07:20:17.410Z,10.27
2018-06-12T07:22:45.478Z,6.60
2018-06-12T07:25:13.534Z,6.83
2018-06-12T07:27:41.655Z,7.40
2018-06-12T07:30:09.769Z,7.83
2018-06-12T07:32:37.775Z,7.70
2018-06-12T07:35:05.842Z,10.30
2018-06-12T07:37:33.924Z,8.23
2018-06-12T07:40:01.993Z,9.10
2018-06-12T07:42:30.294Z,7.30
2018-06-12T07:44:58.387Z,6.53
2018-06-12T07:47:26.562Z,9.20
2018-06-12T07:49:54.632Z,9.97
2018-06-12T07:52:22.706Z,9.37
2018-06-12T07:54:50.790Z,6.17
2018-06-12T07:57:18.863Z,6.83
2018-06-12T07:59:46.944Z,11.47
2018-06-12T08:02:15.007Z,10.43
2018-06-12T08:04:43.106Z,5.07
2018-06-12T08:07:11.167Z,8.90
2018-06-12T08:09:39.283Z,7.20
2018-06-12T08:12:07.598Z,4.50
2018-06-12T08:14:35.707Z,6.50
2018-06-12T08:17:03.851Z,6.80
2018-06-12T08:19:31.933Z,8.50
2018-06-12T08:22:00.111Z,7.53
2018-06-12T08:24:28.167Z,8.43
2018-06-12T08:26:56.215Z,6.43
2018-06-12T08:29:24.270Z,6.27
2018-06-12T08:31:52.370Z,10.10
2018-06-12T08:34:20.434Z,7.73
2018-06-12T08:36:48.320Z,7.23
2018-06-12T08:39:16.413Z,6.23
2018-06-12T08:41:44.521Z,9.07
2018-06-12T08:44:14.230Z,10.53
2018-06-12T08:46:42.417Z,7.47
2018-06-12T08:49:10.474Z,5.57
2018-06-12T08:51:38.613Z,7.83
2018-06-12T08:54:06.752Z,7.10
2018-06-12T08:56:34.823Z,6.65
2018-06-12T08:59:02.933Z,6.33
2018-06-12T09:01:31.109Z,6.45
2018-06-12T09:03:59.161Z,7.53
2018-06-12T09:06:27.272Z,7.40
2018-06-12T09:08:55.356Z,7.97
2018-06-12T09:11:25.704Z,10.37
2018-06-12T09:13:54.006Z,7.90
2018-06-12T09:16:22.287Z,9.30
2018-06-12T09:18:50.443Z,7.23
2018-06-12T09:21:18.544Z,5.63
2018-06-12T09:23:46.610Z,8.57
2018-06-12T09:26:14.668Z,6.17
2018-06-12T09:28:42.726Z,8.87
2018-06-12T09:31:10.794Z,6.80
2018-06-12T09:33:38.897Z,7.30
2018-06-12T09:36:12.666Z,10.70
2018-06-12T09:38:40.778Z,10.70
2018-06-12T09:41:08.862Z,6.53
2018-06-12T09:43:36.922Z,7.22
2018-06-12T09:46:05.042Z,9.13
2018-06-12T09:48:33.150Z,9.33
2018-06-12T09:51:01.203Z,8.83
2018-06-12T09:53:29.114Z,9.70
2018-06-12T09:55:57.279Z,11.33
2018-06-12T09:58:25.322Z,8.90
2018-06-12T10:00:58.848Z,6.50
2018-06-12T10:03:26.906Z,8.05
2018-06-12T10:05:54.975Z,6.95
2018-06-12T10:08:23.022Z,7.58
2018-06-12T10:10:51.080Z,8.38
2018-06-12T10:13:24.717Z,6.95
2018-06-12T10:15:52.795Z,12.58
2018-06-12T10:18:20.901Z,7.72
2018-06-12T10:20:48.963Z,8.63
2018-06-12T10:23:17.054Z,9.60
2018-06-12T10:25:45.126Z,7.83
2018-06-12T10:28:13.231Z,6.60
2018-06-12T10:30:41.306Z,7.70
2018-06-12T10:33:09.382Z,7.13
2018-06-12T10:35:37.464Z,7.37
2018-06-12T10:38:05.614Z,10.40
2018-06-12T10:40:34.038Z,8.73
2018-06-12T10:43:02.080Z,8.97
2018-06-12T10:45:29.980Z,7.33
2018-06-12T10:47:58.067Z,9.87
2018-06-12T10:50:26.139Z,12.63
2018-06-12T10:52:54.211Z,7.23
2018-06-12T10:55:22.299Z,11.53
2018-06-12T10:57:50.377Z,11.40
2018-06-12T11:00:18.434Z,8.60
2018-06-12T11:02:46.567Z,10.53
2018-06-12T11:05:14.631Z,9.63
2018-06-12T11:07:42.828Z,10.47
2018-06-12T11:10:10.893Z,7.90
2018-06-12T11:12:38.973Z,10.08
2018-06-12T11:15:07.011Z,8.90
2018-06-12T11:17:35.139Z,8.20
2018-06-12T11:20:03.210Z,9.43
2018-06-12T11:22:31.313Z,9.65
2018-06-12T11:24:59.431Z,8.35
2018-06-12T11:27:27.479Z,8.45
2018-06-12T11:29:55.559Z,9.68
2018-06-12T11:32:23.634Z,7.15
2018-06-12T11:34:51.718Z,7.80
2018-06-12T11:37:19.820Z,9.48
2018-06-12T11:39:47.934Z,8.63
2018-06-12T11:42:16.025Z,11.33
2018-06-12T11:44:44.081Z,11.20
2018-06-12T11:47:12.148Z,10.10
2018-06-12T11:49:40.217Z,8.75
2018-06-12T11:52:08.323Z,7.53
2018-06-12T11:54:36.358Z,10.40
2018-06-12T11:57:04.491Z,8.60
2018-06-12T11:59:32.627Z,7.45
2018-06-12T12:02:00.705Z,6.92
2018-06-12T12:04:28.782Z,10.33
2018-06-12T12:06:56.853Z,9.47
2018-06-12T12:09:25.031Z,9.03
2018-06-12T12:11:53.067Z,10.67
2018-06-12T12:14:21.150Z,8.97
2018-06-12T12:16:49.214Z,6.57
2018-06-12T12:19:17.282Z,10.20
2018-06-12T12:21:45.365Z,8.90
2018-06-12T12:24:13.452Z,10.53
2018-06-12T12:26:41.511Z,8.30
2018-06-12T12:29:09.583Z,8.73
2018-06-12T12:31:37.651Z,7.63
2018-06-12T12:34:05.763Z,14.33
2018-06-12T12:36:33.894Z,7.17
2018-06-12T12:39:01.972Z,11.40
2018-06-12T12:41:30.047Z,8.33
2018-06-12T12:43:58.100Z,9.35
2018-06-12T12:46:26.233Z,9.37
2018-06-12T12:48:54.318Z,5.17
2018-06-12T12:51:22.383Z,12.10
2018-06-12T12:53:50.507Z,7.07
2018-06-12T12:56:18.646Z,6.70
2018-06-12T12:58:46.714Z,8.43
2018-06-12T13:01:14.777Z,12.18
2018-06-12T13:03:42.909Z,7.27
2018-06-12T13:06:10.971Z,9.20
2018-06-12T13:08:39.059Z,10.97
2018-06-12T13:11:07.165Z,7.73
2018-06-12T13:13:35.241Z,7.33
2018-06-12T13:16:03.505Z,5.80
2018-06-12T13:18:31.603Z,10.53
2018-06-12T13:20:59.720Z,9.80
2018-06-12T13:23:27.784Z,8.83
2018-06-12T13:25:55.842Z,9.47
2018-06-12T13:28:24.041Z,8.53
2018-06-12T13:30:52.090Z,6.57
2018-06-12T13:33:20.183Z,10.30
2018-06-12T13:35:48.254Z,7.10
2018-06-12T13:38:16.389Z,6.63
2018-06-12T13:40:44.438Z,8.23
2018-06-12T13:43:12.611Z,10.00
2018-06-12T13:45:40.749Z,4.63
2018-06-12T13:48:08.813Z,5.03
2018-06-12T13:50:36.910Z,6.87
2018-06-12T13:53:05.036Z,4.77
2018-06-12T13:55:33.115Z,6.57
2018-06-12T13:58:01.184Z,9.50
2018-06-12T14:00:29.280Z,4.27
2018-06-12T14:02:57.378Z,6.83
2018-06-12T14:05:25.499Z,6.43
2018-06-12T14:07:53.586Z,9.67
2018-06-12T14:10:21.663Z,3.93
2018-06-12T14:12:49.736Z,6.03
2018-06-12T14:15:17.804Z,6.23
2018-06-12T14:17:45.990Z,5.00
2018-06-12T14:20:14.052Z,4.40
2018-06-12T14:22:42.127Z,5.47
2018-06-12T14:25:10.210Z,6.27
2018-06-12T14:27:38.376Z,7.73
2018-06-12T14:30:06.451Z,6.50
2018-06-12T14:32:34.522Z,7.03
2018-06-12T14:35:02.703Z,9.15
2018-06-12T14:37:30.751Z,6.67
2018-06-12T14:39:58.952Z,8.90
2018-06-12T14:42:26.995Z,5.33
2018-06-12T14:44:55.099Z,6.73
2018-06-12T14:47:23.179Z,6.13
2018-06-12T14:49:51.293Z,7.23
2018-06-12T14:52:19.401Z,7.53
2018-06-12T14:54:47.473Z,11.13
2018-06-12T14:57:15.545Z,8.77
2018-06-12T14:59:43.619Z,8.77
2018-06-12T15:02:11.747Z,12.43
2018-06-12T15:04:39.881Z,8.37
2018-06-12T15:07:07.996Z,11.30
2018-06-12T15:09:36.083Z,5.90
2018-06-12T15:12:04.191Z,7.50
2018-06-12T15:14:32.267Z,7.90
2018-06-12T15:17:00.355Z,9.43
2018-06-12T15:19:28.497Z,6.47
2018-06-12T15:21:56.553Z,5.97
2018-06-12T15:24:24.642Z,6.30
2018-06-12T15:26:52.718Z,5.63
2018-06-12T15:29:20.817Z,5.85
2018-06-12T15:31:48.875Z,4.93
2018-06-12T15:34:16.992Z,6.10
2018-06-12T15:36:45.134Z,4.37
2018-06-12T15:39:13.206Z,4.63
2018-06-12T15:41:41.267Z,9.70
2018-06-12T15:44:09.356Z,4.07
2018-06-12T15:46:37.420Z,4.53
2018-06-12T15:49:05.562Z,5.37
2018-06-12T15:51:33.632Z,5.73
2018-06-12T15:54:01.711Z,4.10
2018-06-12T15:56:29.791Z,5.07
2018-06-12T15:58:57.875Z,6.90
2018-06-12T16:01:25.938Z,4.93
2018-06-12T16:03:54.003Z,5.90
2018-06-12T16:06:22.075Z,4.50
2018-06-12T16:08:50.181Z,4.40
2018-06-12T16:11:18.326Z,4.28
2018-06-12T16:13:46.416Z,4.47
2018-06-12T16:16:14.505Z,4.75
2018-06-12T16:18:42.559Z,3.90
2018-06-12T16:21:10.698Z,5.23
2018-06-12T16:23:38.742Z,3.70
2018-06-12T16:26:06.854Z,6.10
2018-06-12T16:28:34.912Z,3.00
2018-06-12T16:31:02.980Z,3.50
2018-06-12T16:33:31.066Z,2.80
2018-06-12T16:35:59.179Z,2.33
2018-06-12T16:38:27.267Z,3.87
2018-06-12T16:40:55.384Z,3.20
2018-06-12T16:43:23.538Z,3.27
2018-06-12T16:45:51.643Z,3.97
2018-06-12T16:48:19.723Z,2.13
2018-06-12T16:50:47.879Z,2.27
2018-06-12T16:53:15.962Z,2.23
2018-06-12T16:55:44.039Z,2.43
2018-06-12T16:58:12.106Z,4.00
2018-06-12T17:00:40.184Z,3.83
2018-06-12T17:03:08.238Z,5.03
2018-06-12T17:05:36.314Z,4.35
2018-06-12T17:08:04.726Z,5.27
2018-06-12T17:10:33.065Z,4.37
2018-06-12T17:13:01.189Z,3.57
2018-06-12T17:15:29.295Z,2.27
2018-06-12T17:17:57.379Z,2.53
2018-06-12T17:20:25.431Z,4.40
2018-06-12T17:22:53.697Z,4.40
2018-06-12T17:25:21.791Z,3.27
2018-06-12T17:27:49.874Z,5.17
2018-06-12T17:30:17.983Z,5.80
2018-06-12T17:32:46.085Z,6.80
2018-06-12T17:35:15.355Z,5.50
2018-06-12T17:37:43.415Z,2.43
2018-06-12T17:40:11.498Z,3.77
2018-06-12T17:42:39.623Z,5.90
2018-06-12T17:45:07.683Z,3.83
2018-06-12T17:47:35.881Z,3.43
2018-06-12T17:50:03.926Z,3.23
2018-06-12T17:52:32.428Z,3.43
2018-06-12T17:55:00.601Z,3.97
2018-06-12T17:57:28.684Z,3.63
2018-06-12T18:00:03.487Z,2.93
2018-06-12T18:02:31.574Z,1.80
2018-06-12T18:04:59.674Z,4.67
2018-06-12T18:07:27.772Z,2.50
2018-06-12T18:09:55.832Z,2.40
2018-06-12T18:12:23.968Z,6.07
2018-06-12T18:14:52.040Z,1.70
2018-06-12T18:17:20.104Z,2.30
2018-06-12T18:19:53.642Z,3.20
2018-06-12T18:22:21.780Z,2.43
2018-06-12T18:24:49.945Z,4.30
2018-06-12T18:27:18.027Z,2.03
2018-06-12T18:29:46.079Z,5.07
2018-06-12T18:32:14.168Z,4.73
2018-06-12T18:34:42.299Z,5.73
2018-06-12T18:37:10.418Z,3.33
2018-06-12T18:39:38.509Z,2.40
2018-06-12T18:42:06.595Z,2.07
2018-06-12T18:44:34.729Z,2.50
2018-06-12T18:47:02.822Z,1.63
2018-06-12T18:49:31.044Z,1.80
2018-06-12T18:51:59.098Z,1.47
2018-06-12T18:54:27.324Z,4.43
2018-06-12T18:56:55.405Z,2.53
2018-06-12T18:59:23.537Z,3.80
2018-06-12T19:01:51.439Z,3.55
2018-06-12T19:04:19.510Z,2.93
2018-06-12T19:06:47.677Z,1.40
2018-06-12T19:09:15.697Z,2.53
2018-06-12T19:11:43.736Z,1.77
2018-06-12T19:14:11.882Z,0.97
2018-06-12T19:16:40.020Z,1.80
2018-06-12T19:19:08.175Z,2.40
2018-06-12T19:21:36.282Z,1.97
2018-06-12T19:24:04.385Z,6.37
2018-06-12T19:26:33.411Z,2.27
2018-06-12T19:29:01.555Z,3.17
2018-06-12T19:31:29.610Z,2.20
2018-06-12T19:33:57.667Z,1.70
2018-06-12T19:36:25.771Z,2.83
2018-06-12T19:38:53.840Z,4.63
2018-06-12T19:41:22.607Z,4.50
2018-06-12T19:43:50.675Z,3.20
2018-06-12T19:46:18.751Z,1.23
2018-06-12T19:48:46.848Z,4.20
2018-06-12T19:51:15.061Z,3.90
2018-06-12T19:53:43.215Z,2.10
2018-06-12T19:56:11.278Z,5.23
2018-06-12T19:58:39.431Z,1.70
2018-06-12T20:01:07.530Z,2.00
2018-06-12T20:03:35.599Z,2.17
2018-06-12T20:06:03.695Z,2.80
2018-06-12T20:08:31.814Z,3.80
2018-06-12T20:10:59.915Z,2.30
2018-06-12T20:13:28.176Z,2.43
2018-06-12T20:15:56.320Z,2.27
2018-06-12T20:18:24.166Z,1.60
2018-06-12T20:20:52.791Z,3.43
2018-06-12T20:23:20.896Z,3.90
2018-06-12T20:25:48.976Z,1.70
2018-06-12T20:28:17.220Z,2.33
2018-06-12T20:30:45.307Z,3.40
2018-06-12T20:33:13.453Z,3.93
2018-06-12T20:35:41.366Z,2.73
2018-06-12T20:38:09.423Z,2.77
2018-06-12T20:40:39.444Z,2.80
2018-06-12T20:43:08.169Z,4.10
2018-06-12T20:45:36.302Z,3.63
2018-06-12T20:48:04.548Z,3.37
2018-06-12T20:50:32.674Z,3.80
2018-06-12T20:53:00.862Z,6.83
2018-06-12T20:55:29.018Z,1.80
2018-06-12T20:57:57.202Z,3.23
2018-06-12T21:00:25.327Z,4.40
2018-06-12T21:02:53.423Z,3.10
2018-06-12T21:05:21.488Z,5.40
2018-06-12T21:07:49.590Z,1.73
2018-06-12T21:10:17.656Z,2.63
2018-06-12T21:12:45.843Z,3.63
2018-06-12T21:15:13.979Z,3.23
2018-06-12T21:17:42.020Z,4.57
2018-06-12T21:20:10.180Z,7.33
2018-06-12T21:22:38.058Z,1.63
2018-06-12T21:25:06.156Z,2.03
2018-06-12T21:27:34.244Z,1.63
2018-06-12T21:30:02.544Z,6.07
2018-06-12T21:32:30.607Z,4.03
2018-06-12T21:34:59.468Z,3.50
2018-06-12T21:37:27.566Z,2.63
2018-06-12T21:39:55.639Z,1.20
2018-06-12T21:42:23.908Z,2.43
2018-06-12T21:44:53.001Z,3.67
2018-06-12T21:47:21.126Z,2.27
2018-06-12T21:49:49.245Z,3.87
2018-06-12T21:52:17.402Z,2.57
2018-06-12T21:54:45.470Z,5.80
2018-06-12T21:57:13.930Z,5.07
2018-06-12T21:59:42.824Z,2.83
2018-06-12T22:02:10.859Z,3.20
2018-06-12T22:04:38.996Z,2.20
2018-06-12T22:07:07.075Z,3.83
2018-06-12T22:09:35.155Z,3.73
2018-06-12T22:12:03.250Z,5.60
2018-06-12T22:14:31.301Z,4.13
2018-06-12T22:16:59.499Z,3.93
2018-06-12T22:19:27.602Z,4.07
2018-06-12T22:21:55.778Z,4.37
2018-06-12T22:24:25.887Z,3.80
2018-06-12T22:26:54.014Z,3.90
2018-06-12T22:29:22.046Z,5.37
2018-06-12T22:31:50.119Z,5.50
2018-06-12T22:34:18.236Z,10.23
2018-06-12T22:36:46.325Z,4.73
2018-06-12T22:39:14.392Z,8.03
2018-06-12T22:41:42.501Z,4.27
2018-06-12T22:44:10.699Z,4.30
2018-06-12T22:46:38.770Z,5.63
2018-06-12T22:49:06.842Z,5.62
2018-06-12T22:51:35.038Z,4.50
2018-06-12T22:54:03.172Z,5.95
2018-06-12T22:56:31.230Z,6.10
2018-06-12T22:58:59.304Z,8.93
2018-06-12T23:01:27.362Z,5.63
2018-06-12T23:03:55.465Z,7.70
2018-06-12T23:06:23.579Z,10.80
2018-06-12T23:08:51.639Z,6.33
2018-06-12T23:11:19.754Z,7.13
2018-06-12T23:13:47.818Z,6.60
2018-06-12T23:16:15.880Z,6.10
2018-06-12T23:18:43.971Z,6.70
2018-06-12T23:21:23.539Z,5.90
2018-06-12T23:23:51.728Z,8.00
2018-06-12T23:26:19.786Z,9.00
2018-06-12T23:28:47.863Z,4.47
2018-06-12T23:31:15.938Z,7.70
2018-06-12T23:33:44.010Z,10.07
2018-06-12T23:36:12.104Z,6.37
2018-06-12T23:38:40.142Z,6.77
2018-06-12T23:41:08.234Z,5.57
2018-06-12T23:43:36.323Z,5.10
2018-06-12T23:46:04.422Z,5.53
2018-06-12T23:48:32.511Z,7.37
2018-06-12T23:51:00.633Z,8.50
2018-06-12T23:53:28.715Z,9.27
2018-06-12T23:55:56.804Z,8.93
2018-06-12T23:58:24.967Z,6.50
